createdAt,value
2022-11-29T00:04:07.626Z,124.00
2022-11-29T00:06:36.019Z,128.70
2022-11-29T00:09:07.220Z,121.13
2022-11-29T00:11:56.437Z,106.85
2022-11-29T00:14:25.683Z,103.13
2022-11-29T00:16:56.609Z,98.03
2022-11-29T00:19:24.573Z,103.65
2022-11-29T00:21:52.483Z,94.80
2022-11-29T00:24:20.668Z,92.30
2022-11-29T00:26:48.762Z,98.03
2022-11-29T00:29:17.081Z,91.57
2022-11-29T00:31:45.379Z,99.32
2022-11-29T00:34:13.442Z,102.82
2022-11-29T00:36:41.790Z,84.18
2022-11-29T00:39:12.157Z,98.93
2022-11-29T00:41:40.128Z,99.40
2022-11-29T00:44:08.528Z,89.70
2022-11-29T00:46:36.738Z,71.60
2022-11-29T00:49:05.095Z,61.05
2022-11-29T00:51:33.028Z,49.03
2022-11-29T00:54:01.068Z,119.80
2022-11-29T00:56:29.910Z,97.75
2022-11-29T00:58:58.618Z,90.22
2022-11-29T01:01:26.368Z,90.65
2022-11-29T01:03:54.061Z,96.40
2022-11-29T01:06:21.748Z,94.07
2022-11-29T01:08:50.142Z,99.03
2022-11-29T01:11:24.081Z,100.28
2022-11-29T01:13:55.431Z,98.95
2022-11-29T01:16:23.482Z,100.07
2022-11-29T01:18:51.429Z,106.93
2022-11-29T01:21:22.187Z,102.82
2022-11-29T01:23:52.804Z,97.55
2022-11-29T01:26:23.788Z,100.68
2022-11-29T01:28:53.831Z,104.57
2022-11-29T01:31:31.369Z,101.57
2022-11-29T01:34:01.940Z,107.43
2022-11-29T01:36:30.262Z,95.43
2022-11-29T01:39:00.745Z,95.50
2022-11-29T01:41:31.475Z,97.65
2022-11-29T01:44:04.239Z,96.00
2022-11-29T01:46:37.612Z,97.07
2022-11-29T01:49:10.077Z,97.85
2022-11-29T01:51:40.480Z,89.28
2022-11-29T01:54:10.083Z,85.45
2022-11-29T01:56:39.280Z,76.95
2022-11-29T01:59:11.515Z,93.78
2022-11-29T02:01:39.541Z,105.78
2022-11-29T02:04:07.477Z,100.43
2022-11-29T02:06:36.882Z,96.97
2022-11-29T02:09:05.622Z,103.93
2022-11-29T02:11:57.131Z,101.50
2022-11-29T02:14:50.127Z,93.82
2022-11-29T02:17:34.192Z,98.22
2022-11-29T02:20:23.857Z,95.22
2022-11-29T02:23:06.652Z,94.07
2022-11-29T02:26:12.277Z,85.18
2022-11-29T02:28:58.275Z,97.13
2022-11-29T02:31:53.973Z,93.32
2022-11-29T02:34:52.815Z,93.25
2022-11-29T02:37:42.213Z,94.25
2022-11-29T02:40:26.949Z,66.65
2022-11-29T02:43:10.089Z,94.88
2022-11-29T02:46:18.284Z,82.85
2022-11-29T02:49:12.943Z,93.55
2022-11-29T02:51:58.763Z,84.55
2022-11-29T02:54:35.654Z,80.38
2022-11-29T02:57:40.375Z,84.40
2022-11-29T03:00:18.618Z,82.80
2022-11-29T03:02:52.121Z,78.97
2022-11-29T03:05:36.926Z,84.35
2022-11-29T03:08:15.464Z,85.18
2022-11-29T03:11:11.024Z,73.68
2022-11-29T03:13:56.104Z,69.03
2022-11-29T03:16:30.611Z,66.53
2022-11-29T03:19:30.260Z,65.32
2022-11-29T03:22:12.953Z,64.93
2022-11-29T03:25:02.796Z,53.10
2022-11-29T03:27:59.552Z,54.03
2022-11-29T03:30:32.732Z,65.63
2022-11-29T03:33:30.722Z,61.35
2022-11-29T03:36:30.217Z,55.42
2022-11-29T03:39:04.615Z,60.42
2022-11-29T03:41:59.849Z,59.25
2022-11-29T03:45:14.635Z,57.22
2022-11-29T03:48:11.836Z,60.85
2022-11-29T03:50:56.472Z,61.13
2022-11-29T03:53:40.031Z,60.58
2022-11-29T03:56:37.146Z,57.78
2022-11-29T03:59:33.609Z,54.78
2022-11-29T04:02:27.194Z,59.67
2022-11-29T04:05:12.831Z,56.75
2022-11-29T04:08:11.370Z,57.03
2022-11-29T04:11:06.015Z,55.70
2022-11-29T04:13:55.851Z,52.90
2022-11-29T04:16:51.664Z,36.75
2022-11-29T04:19:53.087Z,46.55
2022-11-29T04:23:03.582Z,38.15
2022-11-29T04:28:31.927Z,29.48
2022-11-29T04:31:13.525Z,34.28
2022-11-29T04:33:47.391Z,30.67
2022-11-29T04:36:57.475Z,31.83
2022-11-29T04:40:03.855Z,34.97
2022-11-29T04:42:43.019Z,31.58
2022-11-29T04:45:46.481Z,32.15
2022-11-29T04:48:35.890Z,29.38
2022-11-29T04:51:16.033Z,29.30
2022-11-29T04:54:06.784Z,32.55
2022-11-29T04:56:49.694Z,35.03
2022-11-29T04:59:44.666Z,35.67
2022-11-29T05:02:37.460Z,34.88
2022-11-29T05:05:42.858Z,32.55
2022-11-29T05:08:47.188Z,43.05
2022-11-29T05:11:24.998Z,37.53
2022-11-29T05:14:48.354Z,50.50
2022-11-29T05:17:22.140Z,36.75
2022-11-29T05:20:24.588Z,37.67
2022-11-29T05:22:52.319Z,37.50
2022-11-29T05:25:35.429Z,32.13
2022-11-29T05:28:12.767Z,38.75
2022-11-29T05:31:18.428Z,29.65
2022-11-29T05:33:52.264Z,37.63
2022-11-29T05:36:43.596Z,47.95
2022-11-29T05:39:38.773Z,39.95
2022-11-29T05:42:30.321Z,40.47
2022-11-29T05:45:16.782Z,37.00
2022-11-29T05:47:53.563Z,30.35
2022-11-29T05:50:37.810Z,34.33
2022-11-29T05:53:17.608Z,33.80
2022-11-29T05:56:07.033Z,46.03
2022-11-29T05:58:48.182Z,33.63
2022-11-29T06:01:26.801Z,40.58
2022-11-29T06:04:02.068Z,38.50
2022-11-29T06:06:55.187Z,30.55
2022-11-29T06:09:44.435Z,30.83
2022-11-29T06:12:24.139Z,29.05
2022-11-29T06:15:04.033Z,33.38
2022-11-29T06:17:53.224Z,31.92
2022-11-29T06:20:57.540Z,27.00
2022-11-29T06:24:24.823Z,27.45
2022-11-29T06:27:30.002Z,23.25
2022-11-29T06:30:03.741Z,21.52
2022-11-29T06:32:44.595Z,22.30
2022-11-29T06:35:35.688Z,24.05
2022-11-29T06:38:22.697Z,23.38
2022-11-29T06:40:51.228Z,26.25
2022-11-29T06:43:19.122Z,20.95
2022-11-29T06:45:51.500Z,25.35
2022-11-29T06:48:28.361Z,25.95
2022-11-29T06:51:38.163Z,23.27
2022-11-29T06:54:27.570Z,31.58
2022-11-29T06:57:09.137Z,25.80
2022-11-29T07:00:02.411Z,22.08
2022-11-29T07:02:59.475Z,21.27
2022-11-29T07:05:32.603Z,26.63
2022-11-29T07:08:07.041Z,26.83
2022-11-29T07:10:38.188Z,28.25
2022-11-29T07:13:06.670Z,23.88
2022-11-29T07:15:39.776Z,27.73
2022-11-29T07:18:26.952Z,24.20
2022-11-29T07:21:06.997Z,25.27
2022-11-29T07:23:44.419Z,34.53
2022-11-29T07:26:16.057Z,22.77
2022-11-29T07:29:09.037Z,40.33
2022-11-29T07:31:52.052Z,32.17
2022-11-29T07:34:35.134Z,41.05
2022-11-29T07:37:07.803Z,35.47
2022-11-29T07:39:54.883Z,33.85
2022-11-29T07:42:30.403Z,36.42
2022-11-29T07:45:38.054Z,33.50
2022-11-29T07:48:10.830Z,27.95
2022-11-29T07:50:40.250Z,33.33
2022-11-29T07:53:20.557Z,34.72
2022-11-29T07:55:49.976Z,32.63
2022-11-29T07:58:18.799Z,31.25
2022-11-29T08:00:47.552Z,27.33
2022-11-29T08:03:15.727Z,25.02
2022-11-29T08:05:47.652Z,21.70
2022-11-29T08:08:15.936Z,26.92
2022-11-29T08:10:44.180Z,19.17
2022-11-29T08:13:14.959Z,22.50
2022-11-29T08:15:47.005Z,20.08
2022-11-29T08:18:16.557Z,16.90
2022-11-29T08:20:46.526Z,20.05
2022-11-29T08:23:15.289Z,22.38
2022-11-29T08:25:43.385Z,24.85
2022-11-29T08:28:11.655Z,22.70
2022-11-29T08:30:42.880Z,23.75
2022-11-29T08:33:11.582Z,20.15
2022-11-29T08:35:40.244Z,19.35
2022-11-29T08:38:08.213Z,20.25
2022-11-29T08:40:36.375Z,19.58
2022-11-29T08:43:04.489Z,16.55
2022-11-29T08:45:32.964Z,23.55
2022-11-29T08:48:01.352Z,23.13
2022-11-29T08:50:29.752Z,19.88
2022-11-29T08:53:20.980Z,21.70
2022-11-29T08:55:49.499Z,22.98
2022-11-29T08:58:17.394Z,16.48
2022-11-29T09:00:48.239Z,18.75
2022-11-29T09:03:34.644Z,18.35
2022-11-29T09:06:11.992Z,21.90
2022-11-29T09:08:43.660Z,21.35
2022-11-29T09:11:14.848Z,20.00
2022-11-29T09:13:44.320Z,16.67
2022-11-29T09:16:16.095Z,19.97
2022-11-29T09:18:50.049Z,18.70
2022-11-29T09:21:19.429Z,18.70
2022-11-29T09:23:47.047Z,33.08
2022-11-29T09:26:20.384Z,18.48
2022-11-29T09:28:48.508Z,17.60
2022-11-29T09:31:17.218Z,16.05
2022-11-29T09:33:46.327Z,21.42
2022-11-29T09:36:14.506Z,18.85
2022-11-29T09:38:42.545Z,16.40
2022-11-29T09:41:52.046Z,17.70
2022-11-29T09:44:31.648Z,16.23
2022-11-29T09:47:14.558Z,17.30
2022-11-29T09:49:49.267Z,17.35
2022-11-29T09:52:34.552Z,19.20
2022-11-29T09:55:23.700Z,18.70
2022-11-29T09:57:53.516Z,24.13
2022-11-29T10:00:21.558Z,20.10
2022-11-29T10:03:13.238Z,17.55
2022-11-29T10:05:47.597Z,19.17
2022-11-29T10:08:42.241Z,20.85
2022-11-29T10:11:15.964Z,24.00
2022-11-29T10:13:49.270Z,20.20
2022-11-29T10:16:44.191Z,24.88
2022-11-29T10:19:20.826Z,22.40
2022-11-29T10:22:02.594Z,22.10
2022-11-29T10:24:31.907Z,21.73
2022-11-29T10:27:00.253Z,20.02
2022-11-29T10:29:27.984Z,20.33
2022-11-29T10:31:57.361Z,18.90
2022-11-29T10:34:26.602Z,35.00
2022-11-29T10:37:00.313Z,20.48
2022-11-29T10:39:40.238Z,17.65
2022-11-29T10:42:35.684Z,18.60
2022-11-29T10:45:05.734Z,21.83
2022-11-29T10:47:33.883Z,16.52
2022-11-29T10:50:01.698Z,17.52
2022-11-29T10:52:29.728Z,14.23
2022-11-29T10:54:59.864Z,14.93
2022-11-29T10:57:28.032Z,15.02
2022-11-29T11:00:11.831Z,13.35
2022-11-29T11:02:39.765Z,11.60
2022-11-29T11:05:19.062Z,45.38
2022-11-29T11:07:57.709Z,38.92
2022-11-29T11:10:31.298Z,64.93
2022-11-29T11:13:19.378Z,82.25
2022-11-29T11:15:47.476Z,65.75
2022-11-29T11:18:23.974Z,47.35
2022-11-29T11:20:59.520Z,17.40
2022-11-29T11:23:37.428Z,19.58
2022-11-29T11:28:51.836Z,49.20
2022-11-29T11:31:27.331Z,20.42
2022-11-29T11:33:55.163Z,16.10
2022-11-29T11:36:27.878Z,19.40
2022-11-29T11:38:55.923Z,17.13
2022-11-29T11:41:23.963Z,16.63
2022-11-29T11:44:00.529Z,16.75
2022-11-29T11:46:49.982Z,16.27
2022-11-29T11:49:47.525Z,29.02
2022-11-29T11:52:22.788Z,25.20
2022-11-29T11:55:22.983Z,26.80
2022-11-29T11:58:16.047Z,27.08
2022-11-29T12:01:05.676Z,24.02
2022-11-29T12:04:00.037Z,33.80
2022-11-29T12:06:57.103Z,66.22
2022-11-29T12:09:27.731Z,34.25
2022-11-29T12:12:10.755Z,49.50
2022-11-29T12:14:43.446Z,65.95
2022-11-29T12:17:33.066Z,72.60
2022-11-29T12:20:15.369Z,70.50
2022-11-29T12:22:49.243Z,43.78
2022-11-29T12:25:34.494Z,38.97
2022-11-29T12:28:02.235Z,33.17
2022-11-29T12:30:31.604Z,34.03
2022-11-29T12:33:24.341Z,26.73
2022-11-29T12:35:58.368Z,42.30
2022-11-29T12:38:44.319Z,39.95
2022-11-29T12:41:33.815Z,26.63
2022-11-29T12:44:37.373Z,22.92
2022-11-29T12:47:52.770Z,29.90
2022-11-29T12:50:52.615Z,31.02
2022-11-29T12:53:45.203Z,31.55
2022-11-29T12:56:25.144Z,38.60
2022-11-29T12:59:28.208Z,36.42
2022-11-29T13:02:13.579Z,21.42
2022-11-29T13:04:44.294Z,29.77
2022-11-29T13:07:21.602Z,23.33
2022-11-29T13:10:04.899Z,20.60
2022-11-29T13:12:44.851Z,17.92
2022-11-29T13:15:17.284Z,17.00
2022-11-29T13:18:01.398Z,16.52
2022-11-29T13:20:50.549Z,18.10
2022-11-29T13:24:00.364Z,25.27
2022-11-29T13:26:23.135Z,20.65
2022-11-29T13:28:51.293Z,15.80
2022-11-29T13:31:22.378Z,16.33
2022-11-29T13:34:04.268Z,17.63
2022-11-29T13:36:45.991Z,17.23
2022-11-29T13:39:35.923Z,13.75
2022-11-29T13:42:22.304Z,14.73
2022-11-29T13:45:05.197Z,18.08
2022-11-29T13:47:33.105Z,14.73
2022-11-29T13:50:26.962Z,13.15
2022-11-29T13:53:13.098Z,18.40
2022-11-29T13:55:51.518Z,19.80
2022-11-29T13:58:19.294Z,19.95
2022-11-29T14:00:50.267Z,22.27
2022-11-29T14:03:24.552Z,27.80
2022-11-29T14:06:00.575Z,21.95
2022-11-29T14:08:55.083Z,29.58
2022-11-29T14:11:32.310Z,24.05
2022-11-29T14:14:03.350Z,22.23
2022-11-29T14:16:42.313Z,23.75
2022-11-29T14:19:10.765Z,29.38
2022-11-29T14:22:05.423Z,26.00
2022-11-29T14:24:36.121Z,26.00
2022-11-29T14:27:07.575Z,30.20
2022-11-29T14:29:50.582Z,29.63
2022-11-29T14:32:49.682Z,25.65
2022-11-29T14:35:46.442Z,24.67
2022-11-29T14:38:42.603Z,35.58
2022-11-29T14:41:49.150Z,50.38
2022-11-29T14:44:22.764Z,45.13
2022-11-29T14:47:03.992Z,39.50
2022-11-29T14:49:40.256Z,65.35
2022-11-29T14:52:09.939Z,47.70
2022-11-29T14:54:54.407Z,52.95
2022-11-29T14:57:58.250Z,52.70
2022-11-29T15:00:47.214Z,28.67
2022-11-29T15:03:21.842Z,36.80
2022-11-29T15:06:08.631Z,42.95
2022-11-29T15:08:47.895Z,58.03
2022-11-29T15:11:27.855Z,69.82
2022-11-29T15:14:11.778Z,60.67
2022-11-29T15:17:17.997Z,56.60
2022-11-29T15:20:18.459Z,51.47
2022-11-29T15:25:31.128Z,28.17
2022-11-29T15:28:01.072Z,26.08
2022-11-29T15:30:38.726Z,18.67
2022-11-29T15:33:21.747Z,24.52
2022-11-29T15:35:53.162Z,22.38
2022-11-29T15:38:22.705Z,22.65
2022-11-29T15:40:55.969Z,48.90
2022-11-29T15:43:35.875Z,49.75
2022-11-29T15:46:05.251Z,34.28
2022-11-29T15:48:39.528Z,33.08
2022-11-29T15:51:29.450Z,28.33
2022-11-29T15:54:13.557Z,19.20
2022-11-29T15:56:55.493Z,18.15
2022-11-29T15:59:38.246Z,18.33
2022-11-29T16:02:14.396Z,23.17
2022-11-29T16:04:49.274Z,23.95
2022-11-29T16:07:22.151Z,30.25
2022-11-29T16:10:06.138Z,42.70
2022-11-29T16:12:35.808Z,38.22
2022-11-29T16:15:05.454Z,30.37
2022-11-29T16:17:36.393Z,63.25
2022-11-29T16:20:28.909Z,75.65
2022-11-29T16:23:18.855Z,64.00
2022-11-29T16:26:06.024Z,57.85
2022-11-29T16:28:41.127Z,55.55
2022-11-29T16:31:12.491Z,65.75
2022-11-29T16:33:44.912Z,68.57
2022-11-29T16:36:24.476Z,63.15
2022-11-29T16:38:55.552Z,66.32
2022-11-29T16:42:11.825Z,80.85
2022-11-29T16:44:47.397Z,67.43
2022-11-29T16:47:23.291Z,89.30
2022-11-29T16:50:04.378Z,129.40
2022-11-29T16:52:34.444Z,109.45
2022-11-29T16:55:02.542Z,110.82
2022-11-29T16:57:31.958Z,113.57
2022-11-29T17:00:00.040Z,129.53
2022-11-29T17:02:30.413Z,155.32
2022-11-29T17:04:59.595Z,165.05
2022-11-29T17:07:32.163Z,149.82
2022-11-29T17:10:01.087Z,121.22
2022-11-29T17:12:29.317Z,110.78
2022-11-29T17:14:58.880Z,115.35
2022-11-29T17:17:27.691Z,119.05
2022-11-29T17:19:55.724Z,106.75
2022-11-29T17:22:24.587Z,100.97
2022-11-29T17:24:53.713Z,109.80
2022-11-29T17:27:22.108Z,108.20
2022-11-29T17:29:50.612Z,104.15
2022-11-29T17:32:23.264Z,95.32
2022-11-29T17:34:55.036Z,81.75
2022-11-29T17:37:23.745Z,91.75
2022-11-29T17:39:52.843Z,88.65
2022-11-29T17:42:21.377Z,90.22
2022-11-29T17:44:50.012Z,86.97
2022-11-29T17:47:18.774Z,85.15
2022-11-29T17:49:47.720Z,83.00
2022-11-29T17:52:16.085Z,86.18
2022-11-29T17:54:44.635Z,88.25
2022-11-29T17:57:13.292Z,84.30
2022-11-29T17:59:41.645Z,80.63
2022-11-29T18:02:13.381Z,82.82
2022-11-29T18:04:43.354Z,66.45
2022-11-29T18:07:13.434Z,69.43
2022-11-29T18:12:10.712Z,62.85
2022-11-29T18:14:39.350Z,65.68
2022-11-29T18:17:07.885Z,56.25
2022-11-29T18:19:36.174Z,48.35
2022-11-29T18:22:04.663Z,41.78
2022-11-29T18:24:33.072Z,48.33
2022-11-29T18:27:01.376Z,71.95
2022-11-29T18:29:32.757Z,74.32
2022-11-29T18:32:05.733Z,72.25
2022-11-29T18:34:33.684Z,54.30
2022-11-29T18:37:01.835Z,65.18
2022-11-29T18:39:31.018Z,54.40
2022-11-29T18:41:58.966Z,60.20
2022-11-29T18:44:31.188Z,61.15
2022-11-29T18:46:59.444Z,55.78
2022-11-29T18:49:27.443Z,59.80
2022-11-29T18:51:56.292Z,77.03
2022-11-29T18:54:24.971Z,72.65
2022-11-29T18:56:53.355Z,103.72
2022-11-29T18:59:23.478Z,114.45
2022-11-29T19:01:52.508Z,112.13
2022-11-29T19:04:21.718Z,97.63
2022-11-29T19:06:50.497Z,90.50
2022-11-29T19:09:21.588Z,87.07
2022-11-29T19:11:50.493Z,79.07
2022-11-29T19:14:19.434Z,67.97
2022-11-29T19:16:49.361Z,64.75
2022-11-29T19:19:24.804Z,58.10
2022-11-29T19:24:43.522Z,62.40
2022-11-29T19:27:12.821Z,58.47
2022-11-29T19:29:42.657Z,45.55
2022-11-29T19:32:14.539Z,48.50
2022-11-29T19:34:47.973Z,47.35
2022-11-29T19:37:19.573Z,62.67
2022-11-29T19:39:51.731Z,64.80
2022-11-29T19:42:23.403Z,51.45
2022-11-29T19:45:15.837Z,36.42
2022-11-29T19:47:42.124Z,60.83
2022-11-29T19:50:11.268Z,69.40
2022-11-29T19:52:42.686Z,76.80
2022-11-29T19:55:14.160Z,68.22
2022-11-29T19:57:42.737Z,77.30
2022-11-29T20:00:11.573Z,76.63
2022-11-29T20:02:43.004Z,90.47
2022-11-29T20:05:13.690Z,59.92
2022-11-29T20:07:42.310Z,78.05
2022-11-29T20:10:10.774Z,106.45
2022-11-29T20:12:39.130Z,101.60
2022-11-29T20:15:10.236Z,118.65
2022-11-29T20:17:38.027Z,110.15
2022-11-29T20:20:09.415Z,116.93
2022-11-29T20:22:37.981Z,104.78
2022-11-29T20:25:06.179Z,65.30
2022-11-29T20:27:35.009Z,65.88
2022-11-29T20:30:03.420Z,65.90
2022-11-29T20:32:31.728Z,63.90
2022-11-29T20:35:02.708Z,61.58
2022-11-29T20:38:00.370Z,58.53
2022-11-29T20:41:01.036Z,53.13
2022-11-29T20:43:43.799Z,91.32
2022-11-29T20:46:13.260Z,81.05
2022-11-29T20:48:43.924Z,81.75
2022-11-29T20:51:17.450Z,71.53
2022-11-29T20:53:51.252Z,75.32
2022-11-29T20:56:23.202Z,81.15
2022-11-29T20:58:51.960Z,85.53
2022-11-29T21:01:23.671Z,85.38
2022-11-29T21:03:56.025Z,74.68
2022-11-29T21:06:24.473Z,69.35
2022-11-29T21:08:52.891Z,64.97
2022-11-29T21:11:21.095Z,67.00
2022-11-29T21:13:49.261Z,58.90
2022-11-29T21:16:17.404Z,74.30
2022-11-29T21:18:45.685Z,90.75
2022-11-29T21:21:25.399Z,92.93
2022-11-29T21:24:23.939Z,94.00
2022-11-29T21:26:52.879Z,98.70
2022-11-29T21:29:22.521Z,93.13
2022-11-29T21:31:53.219Z,88.90
2022-11-29T21:34:21.869Z,95.38
2022-11-29T21:36:59.309Z,93.07
2022-11-29T21:39:32.619Z,99.80
2022-11-29T21:42:00.544Z,149.50
2022-11-29T21:44:28.431Z,100.93
2022-11-29T21:46:56.292Z,105.53
2022-11-29T21:49:24.237Z,98.97
2022-11-29T21:51:52.418Z,91.78
2022-11-29T21:54:20.054Z,94.93
2022-11-29T21:56:47.826Z,102.60
2022-11-29T21:59:15.575Z,101.13
2022-11-29T22:01:43.414Z,100.07
2022-11-29T22:04:12.304Z,116.38
2022-11-29T22:06:40.024Z,113.25
2022-11-29T22:09:08.148Z,104.95
2022-11-29T22:11:36.061Z,109.13
2022-11-29T22:14:32.174Z,114.95
2022-11-29T22:24:36.323Z,84.50
2022-11-29T22:27:04.421Z,89.13
2022-11-29T22:29:32.234Z,92.25
2022-11-29T22:32:01.347Z,86.05
2022-11-29T22:34:29.400Z,88.30
2022-11-29T22:36:57.073Z,88.90
2022-11-29T22:39:25.207Z,89.57
2022-11-29T22:41:54.945Z,81.55
2022-11-29T22:44:24.292Z,80.30
2022-11-29T22:46:52.611Z,79.47
2022-11-29T22:49:20.825Z,72.75
2022-11-29T22:51:48.663Z,89.85
2022-11-29T22:54:16.827Z,96.35
2022-11-29T22:56:45.670Z,93.95
2022-11-29T22:59:13.699Z,103.53
2022-11-29T23:01:42.893Z,191.95
2022-11-29T23:04:12.445Z,207.33
2022-11-29T23:06:44.984Z,140.55
2022-11-29T23:09:20.387Z,130.40
2022-11-29T23:11:53.715Z,92.38
2022-11-29T23:14:22.376Z,104.90
2022-11-29T23:16:50.065Z,83.00
2022-11-29T23:19:18.200Z,81.63
2022-11-29T23:22:04.990Z,85.75
2022-11-29T23:24:33.037Z,93.90
2022-11-29T23:27:01.190Z,99.03
2022-11-29T23:29:28.849Z,81.15
2022-11-29T23:31:56.499Z,77.68
2022-11-29T23:34:24.237Z,76.45
2022-11-29T23:36:53.283Z,73.20
2022-11-29T23:39:21.570Z,66.15
2022-11-29T23:41:49.415Z,62.85
2022-11-29T23:44:17.038Z,65.80
2022-11-29T23:46:44.802Z,63.53
2022-11-29T23:49:12.751Z,63.83
2022-11-29T23:51:40.421Z,64.38
2022-11-29T23:54:08.232Z,68.38
2022-11-29T23:56:35.867Z,63.30
2022-11-29T23:59:03.924Z,66.10
